Hlavní strana
METAR-TAF:

METAR-TAF

Letiště :

Zakynthos, Řecko

zeměpisná šířka: 37-45N, zeměpisná délka: 020-53E, výška: 3 m

Aktuální stav počasí

Zpráva byla vytvořena před 10 hodinami a 56 minutami, v 17:50 UTC
Bezvětří
Teplota 11°C
Vlhkost vzduchu 87%
Tlak 1030 hPa
Viditelnost: 9000 m
Polojasno ve výšce 2000 ft
Oblačno až skoro zataženo ve výšce 4000 ft

METAR: LGZA 241750Z 00000KT 9000 SCT020 BKN040 11/09 Q1030

Čas: 06:46 (04:46 UTC)

Předpověď počasí

Zpráva byla vytvořena před 2 hodinami a 46 minutami, v 02:00 UTC
Předpověď platná od 25 v 03 UTC do 25 v 12 UTC
vítr z různých směrů 3 kt
Viditelnost 10 km a více
Skoro jasno ve výšce 2000 ft
Oblačno až skoro zataženo ve výšce 4000 ft

TAF: LGZA 250200Z 2503/2512 VRB03KT 9999 FEW020 BKN040

Stav a předpovědi počasí z více než 4 000 letišť (zprávy METAR a TAF).

Červené a žluté tečky na mapě představují dostupné meteorologické stanice.

Když kurzor umístíte na tečku, zobrazí se název stanice.

Pak kliknutím zobrazíte stav a předpověď počasí.

Chcete-li změnit mapu, kliknutím na zelené tlačítko se znaménkem +mapu přiblížíte, kliknutím na zelené tlačítko se znaménkem – mapu oddálíte a kliknutím na zelené šipky přejdete na sousední mapy.


METAR-TAF: